KRNT

Renton Municipal Airport

Renton, Washington, USA
METAR KRNT 151853Z 11004KT 10SM FEW035 OVC055 07/02 A2963 RMK AO2 SLP037 T00720022
Observed Flight Rules
Feb-15 @ 18:53 UTC (16 minutes ago) Visual Flight Rules
Wind Visibility Clouds
110° at 4 knots 10 miles
  • Few at 3,500' AGL
  • Overcast at 5,500' AGL
Temperatures Readings
Current 7°C / 45°F
Dewpoint 2°C / 36°F
Humidity 71%
Altimeter 29.63" Hg
Pressure 1003.7 hPa
Elevation 21
METAR KRNT 151853Z 11004KT 10SM FEW035 OVC055 07/02 A2963 RMK AO2 SLP037 T00720022
Observed Flight Rules
Feb-15 @ 18:53 UTC
(16 minutes ago)
VFR
Wind Visibility
110° at 4 knots 10 miles
Clouds
  • Few at 3,500' AGL
  • Overcast at 5,500' AGL
Temperature Dewpoint
7°C / 45°F 2°C / 36°F
Humidity Altimeter Pressure
71% 29.63" Hg 1003.7 hPa